Time;durP1;ratioP1;P1;durP2;ratioP2;P2;SDS_P1;SDS_P2;PMS_P1;PMS_P2;Temp;Humidity;BMP_temperature;BMP_pressure;BME280_temperature;BME280_humidity;BME280_pressure;Samples;Min_cycle;Max_cycle;Signal;HPM_P1;HPM_P2
2024/03/10 00:00:08;;;;;;;2.47;1.65;;;6.60;99.90;;;;;;4439232;32;20089;-64
2024/03/10 00:02:34;;;;;;;2.78;1.17;;;6.60;99.90;;;;;;4440211;32;20057;-64
2024/03/10 00:04:59;;;;;;;1.75;1.30;;;6.60;99.90;;;;;;4440107;32;20112;-64
2024/03/10 00:07:25;;;;;;;0.62;0.62;;;6.50;99.90;;;;;;4438718;32;20089;-64
2024/03/10 00:09:51;;;;;;;3.20;2.03;;;6.50;99.90;;;;;;4440900;32;20065;-68
2024/03/10 00:12:17;;;;;;;2.03;1.10;;;6.50;99.90;;;;;;4439045;32;20703;-64
2024/03/10 00:14:44;;;;;;;3.45;1.30;;;6.50;99.90;;;;;;4440586;32;20094;-64
2024/03/10 00:17:09;;;;;;;1.20;1.10;;;6.40;99.90;;;;;;4439426;32;20089;-66
2024/03/10 00:19:35;;;;;;;0.73;0.73;;;6.50;99.90;;;;;;4438503;32;20069;-66
2024/03/10 00:22:01;;;;;;;1.02;0.93;;;6.40;99.90;;;;;;4437535;32;20135;-66
2024/03/10 00:24:27;;;;;;;3.12;1.35;;;6.40;99.90;;;;;;4439456;32;20089;-66
2024/03/10 00:26:52;;;;;;;7.72;2.55;;;6.40;99.90;;;;;;4437715;32;20084;-67
2024/03/10 00:29:17;;;;;;;3.80;1.77;;;6.50;99.90;;;;;;4435940;32;20060;-65
2024/03/10 00:31:44;;;;;;;0.75;0.75;;;6.50;99.90;;;;;;4438165;32;20097;-66
2024/03/10 00:34:09;;;;;;;6.95;1.83;;;6.40;99.90;;;;;;4437404;32;21594;-66
2024/03/10 00:36:35;;;;;;;1.30;1.00;;;6.50;99.90;;;;;;4437953;32;20069;-66
2024/03/10 00:39:00;;;;;;;0.90;0.90;;;6.40;99.90;;;;;;4436500;32;20127;-65
2024/03/10 00:41:26;;;;;;;2.10;1.40;;;6.40;99.90;;;;;;4437300;32;20296;-65
2024/03/10 00:43:51;;;;;;;24.60;1.95;;;6.40;99.90;;;;;;4435154;32;20544;-67
2024/03/10 00:46:17;;;;;;;0.52;0.52;;;6.30;99.90;;;;;;4438898;32;20135;-67
2024/03/10 00:48:43;;;;;;;3.70;1.20;;;6.30;99.90;;;;;;4436870;32;20513;-66
2024/03/10 00:51:08;;;;;;;1.30;1.20;;;6.20;99.90;;;;;;4441067;32;20077;-66
2024/03/10 00:53:34;;;;;;;1.05;1.02;;;6.20;99.90;;;;;;4450670;32;20138;-65
2024/03/10 00:55:59;;;;;;;4.80;1.20;;;6.30;99.90;;;;;;4456129;32;20135;-66
2024/03/10 00:58:24;;;;;;;1.48;1.37;;;6.30;99.90;;;;;;4456162;32;20064;-66
2024/03/10 01:00:50;;;;;;;1.50;1.37;;;6.30;99.90;;;;;;4457572;32;20096;-65
2024/03/10 01:03:16;;;;;;;2.22;1.50;;;6.30;99.90;;;;;;4457998;32;20084;-66
2024/03/10 01:05:42;;;;;;;0.50;0.50;;;6.20;99.90;;;;;;4455680;32;20092;-66
2024/03/10 01:08:08;;;;;;;1.52;1.23;;;6.20;99.90;;;;;;4458191;32;20459;-66
2024/03/10 01:10:35;;;;;;;1.48;1.35;;;6.20;99.90;;;;;;4456454;32;20072;-66
2024/03/10 01:13:01;;;;;;;1.33;1.15;;;6.20;99.90;;;;;;4456652;32;20483;-66
2024/03/10 01:15:26;;;;;;;1.00;1.00;;;6.10;99.90;;;;;;4456070;32;20089;-66
2024/03/10 01:17:52;;;;;;;7.70;1.50;;;6.10;99.90;;;;;;4457206;32;20060;-66
2024/03/10 01:20:17;;;;;;;1.00;1.00;;;6.10;99.90;;;;;;4455215;32;21504;-66
2024/03/10 01:22:44;;;;;;;0.45;0.45;;;6.10;99.90;;;;;;4457810;32;20085;-66
2024/03/10 01:25:10;;;;;;;0.80;0.80;;;6.10;99.90;;;;;;4456631;32;20424;-66
2024/03/10 01:27:36;;;;;;;1.20;1.10;;;6.00;99.90;;;;;;4457693;32;20146;-66
2024/03/10 01:30:02;;;;;;;1.27;1.17;;;6.00;99.90;;;;;;4456964;32;20595;-66
2024/03/10 01:32:28;;;;;;;7.75;3.20;;;6.00;99.90;;;;;;4457244;32;20504;-65
2024/03/10 01:34:53;;;;;;;0.85;0.85;;;6.00;99.90;;;;;;4455316;32;20073;-66
2024/03/10 01:37:19;;;;;;;1.27;0.90;;;6.00;99.90;;;;;;4447794;32;20076;-67
2024/03/10 01:39:44;;;;;;;0.93;0.93;;;6.00;99.90;;;;;;4441679;32;20077;-66
2024/03/10 01:42:11;;;;;;;0.93;0.90;;;6.00;99.90;;;;;;4455438;32;20076;-66
2024/03/10 01:44:36;;;;;;;4.12;2.22;;;6.00;99.90;;;;;;4455305;32;20077;-65
2024/03/10 01:47:02;;;;;;;3.72;1.45;;;6.00;99.90;;;;;;4456649;32;20060;-66
2024/03/10 01:49:28;;;;;;;2.70;1.50;;;6.00;99.90;;;;;;4456395;32;20344;-66
2024/03/10 01:51:56;;;;;;;1.08;0.98;;;6.00;99.90;;;;;;4454420;32;20545;-66
2024/03/10 01:54:25;;;;;;;1.27;1.17;;;6.00;99.90;;;;;;4456158;32;20139;-66
2024/03/10 01:56:51;;;;;;;2.72;1.02;;;6.00;99.90;;;;;;4455514;32;20084;-62
2024/03/10 01:59:17;;;;;;;0.68;0.68;;;5.90;99.90;;;;;;4456823;32;20061;-62
2024/03/10 02:04:10;;;;;;;1.95;1.77;;;5.90;99.90;;;;;;4455770;32;20105;-63
2024/03/10 02:06:36;;;;;;;2.65;1.23;;;5.90;99.90;;;;;;4456202;32;20068;-62
2024/03/10 02:09:03;;;;;;;0.80;0.80;;;5.80;99.90;;;;;;4455187;32;20080;-64
2024/03/10 02:11:29;;;;;;;2.92;1.45;;;5.80;99.90;;;;;;4456596;32;20102;-62
2024/03/10 02:13:55;;;;;;;0.70;0.70;;;5.80;99.90;;;;;;4455566;32;20064;-63
2024/03/10 02:16:23;;;;;;;3.10;1.42;;;5.80;99.90;;;;;;4455170;32;21081;-63
2024/03/10 02:18:51;;;;;;;1.17;1.08;;;5.80;99.90;;;;;;4455438;32;20231;-63
2024/03/10 02:21:21;;;;;;;0.98;0.98;;;5.80;99.90;;;;;;4454078;32;20516;-63
2024/03/10 02:24:11;;;;;;;15.50;2.10;;;5.80;99.90;;;;;;4456787;32;20424;-64
2024/03/10 02:26:41;;;;;;;2.45;0.98;;;5.90;99.90;;;;;;4455129;32;20136;-63
2024/03/10 02:29:14;;;;;;;1.62;1.15;;;5.80;99.90;;;;;;4454764;32;20520;-63
2024/03/10 02:47:28;;;;;;;1.55;0.75;;;5.70;99.90;;;;;;4445702;32;20068;-66
2024/03/10 02:48:14;;;;;;;0.70;0.70;;;5.70;99.90;;;;;;4447247;32;20065;-65
2024/03/10 02:50:40;;;;;;;3.83;1.05;;;5.60;99.90;;;;;;4454644;32;20092;-66
2024/03/10 02:53:05;;;;;;;4.07;1.62;;;5.60;99.90;;;;;;4446610;32;20091;-65
2024/03/10 02:55:32;;;;;;;1.85;1.27;;;5.60;99.90;;;;;;4455156;32;20064;-65
2024/03/10 02:58:01;;;;;;;0.68;0.68;;;5.60;99.90;;;;;;4455796;32;20129;-65
2024/03/10 03:00:28;;;;;;;2.20;1.23;;;5.60;99.90;;;;;;4447607;32;20060;-66
2024/03/10 03:02:55;;;;;;;1.73;1.10;;;5.60;99.90;;;;;;4454527;32;20669;-66
2024/03/10 03:05:21;;;;;;;1.60;1.25;;;5.60;99.90;;;;;;4450828;32;20118;-66
2024/03/10 03:07:48;;;;;;;1.33;1.17;;;5.50;99.90;;;;;;4456811;32;20081;-65
2024/03/10 03:10:14;;;;;;;0.80;0.80;;;5.60;99.90;;;;;;4446782;32;20068;-66
2024/03/10 03:12:42;;;;;;;1.83;1.25;;;5.50;99.90;;;;;;4453837;32;20083;-65
2024/03/10 03:15:09;;;;;;;1.08;1.02;;;5.50;99.90;;;;;;4453815;32;20076;-66
2024/03/10 03:17:35;;;;;;;0.88;0.85;;;5.50;99.90;;;;;;4455030;32;20069;-66
2024/03/10 03:20:02;;;;;;;0.80;0.80;;;5.50;99.90;;;;;;4454327;32;20072;-65
2024/03/10 03:22:27;;;;;;;1.58;1.20;;;5.50;99.90;;;;;;4454987;32;20088;-66
2024/03/10 03:24:53;;;;;;;1.37;1.08;;;5.40;99.90;;;;;;4447317;32;20076;-66
2024/03/10 03:27:20;;;;;;;1.20;0.90;;;5.50;99.90;;;;;;4454877;32;20130;-65
2024/03/10 03:29:45;;;;;;;6.25;0.90;;;5.50;99.90;;;;;;4454201;32;20065;-66
2024/03/10 03:32:11;;;;;;;4.28;1.98;;;5.50;99.90;;;;;;4453678;32;20558;-66
2024/03/10 03:34:38;;;;;;;1.95;1.48;;;5.40;99.90;;;;;;4454200;32;20130;-66
2024/03/10 03:37:03;;;;;;;1.73;1.20;;;5.40;99.90;;;;;;4446160;32;20123;-66
2024/03/10 03:39:29;;;;;;;0.88;0.88;;;5.30;99.90;;;;;;4454969;32;20084;-66
2024/03/10 03:41:54;;;;;;;0.75;0.75;;;5.30;99.90;;;;;;4454952;32;20406;-66
2024/03/10 03:44:20;;;;;;;1.95;1.25;;;5.30;99.90;;;;;;4447537;32;20337;-65
2024/03/10 03:46:45;;;;;;;1.83;1.45;;;5.30;99.90;;;;;;4452641;32;20088;-67
2024/03/10 03:49:10;;;;;;;1.08;1.02;;;5.30;99.90;;;;;;4454810;32;20108;-66
2024/03/10 03:51:37;;;;;;;1.10;1.10;;;5.30;99.90;;;;;;4455054;32;20539;-66
2024/03/10 03:54:05;;;;;;;0.75;0.75;;;5.30;99.90;;;;;;4455758;32;20085;-66
2024/03/10 03:56:31;;;;;;;0.77;0.77;;;5.30;99.90;;;;;;4453622;32;20089;-66
2024/03/10 03:58:57;;;;;;;1.80;1.25;;;5.20;99.90;;;;;;4454274;32;20528;-66
2024/03/10 04:01:22;;;;;;;2.03;1.83;;;5.20;99.90;;;;;;4453224;32;20126;-66
2024/03/10 04:03:48;;;;;;;0.88;0.88;;;5.20;99.90;;;;;;4452039;32;20080;-66
2024/03/10 04:06:14;;;;;;;1.90;1.25;;;5.20;99.90;;;;;;4455502;32;20077;-66
2024/03/10 04:08:40;;;;;;;1.73;1.48;;;5.20;99.90;;;;;;4454180;32;20077;-65
2024/03/10 04:11:06;;;;;;;1.00;0.98;;;5.10;99.90;;;;;;4453135;32;20453;-66
2024/03/10 04:13:31;;;;;;;3.62;1.30;;;5.10;99.90;;;;;;4453654;32;20072;-65
2024/03/10 04:15:57;;;;;;;3.62;1.42;;;5.10;99.90;;;;;;4456598;32;20782;-64
2024/03/10 04:18:22;;;;;;;3.15;1.98;;;5.10;99.90;;;;;;4455580;32;20159;-64
2024/03/10 04:20:48;;;;;;;1.90;1.52;;;5.10;99.90;;;;;;4455091;32;20063;-64
2024/03/10 04:23:14;;;;;;;9.90;2.05;;;5.00;99.90;;;;;;4455338;32;20064;-64
2024/03/10 04:25:40;;;;;;;0.75;0.75;;;5.00;99.90;;;;;;4454368;32;20073;-64
2024/03/10 04:28:05;;;;;;;5.82;1.12;;;5.00;99.90;;;;;;4456869;32;20588;-64
2024/03/10 04:30:31;;;;;;;2.05;1.65;;;5.00;99.90;;;;;;4456941;32;20115;-64
2024/03/10 04:32:57;;;;;;;4.12;1.48;;;4.90;99.90;;;;;;4457572;32;20161;-64
2024/03/10 04:35:24;;;;;;;1.75;1.52;;;4.90;99.90;;;;;;4458061;32;20065;-65
2024/03/10 04:37:49;;;;;;;5.75;0.93;;;4.90;99.90;;;;;;4458166;32;20076;-65
2024/03/10 04:40:18;;;;;;;4.57;2.25;;;4.80;99.90;;;;;;4458870;32;20064;-63
2024/03/10 04:42:43;;;;;;;2.10;1.15;;;4.80;99.90;;;;;;4456721;32;20064;-65
2024/03/10 04:45:11;;;;;;;2.97;2.67;;;4.70;99.90;;;;;;4457327;32;20085;-65
2024/03/10 04:47:38;;;;;;;0.88;0.88;;;4.70;99.90;;;;;;4457761;32;20430;-65
2024/03/10 04:50:04;;;;;;;2.12;1.83;;;4.70;99.90;;;;;;4459256;32;20192;-64
2024/03/10 04:52:31;;;;;;;3.72;2.35;;;4.70;99.90;;;;;;4458599;32;20065;-65
2024/03/10 04:54:56;;;;;;;5.10;1.80;;;4.70;99.90;;;;;;4457466;32;20139;-64
2024/03/10 04:57:22;;;;;;;5.20;2.47;;;4.70;99.90;;;;;;4457812;32;20077;-66
2024/03/10 04:59:48;;;;;;;2.55;1.30;;;4.70;99.90;;;;;;4457374;32;20060;-66
2024/03/10 05:02:13;;;;;;;1.52;1.42;;;4.70;99.90;;;;;;4455378;32;20076;-67
2024/03/10 05:04:39;;;;;;;8.10;2.85;;;4.70;99.90;;;;;;4455323;32;20072;-64
2024/03/10 05:07:04;;;;;;;2.28;2.08;;;4.60;99.90;;;;;;4457707;32;20077;-65
2024/03/10 05:09:30;;;;;;;2.53;1.75;;;4.60;99.90;;;;;;4457413;32;20084;-65
2024/03/10 05:11:56;;;;;;;1.75;1.60;;;4.60;99.90;;;;;;4457555;32;20095;-66
2024/03/10 05:14:22;;;;;;;0.90;0.88;;;4.70;99.90;;;;;;4455386;32;20467;-65
2024/03/10 05:16:48;;;;;;;2.78;1.70;;;4.60;99.90;;;;;;4457379;32;20060;-66
2024/03/10 05:19:13;;;;;;;7.43;1.45;;;4.50;99.90;;;;;;4455770;32;20122;-65
2024/03/10 05:21:46;;;;;;;2.85;1.90;;;4.60;99.90;;;;;;4455247;32;20065;-64
2024/03/10 05:24:12;;;;;;;1.45;1.35;;;4.50;99.90;;;;;;4456346;32;20061;-64
2024/03/10 05:26:41;;;;;;;0.82;0.82;;;4.50;99.90;;;;;;4456734;32;20065;-61
2024/03/10 05:29:06;;;;;;;3.72;2.85;;;4.50;99.90;;;;;;4456374;32;20080;-65
2024/03/10 05:31:33;;;;;;;1.40;0.98;;;4.50;99.90;;;;;;4455047;32;20076;-64
2024/03/10 05:33:59;;;;;;;9.52;2.78;;;4.50;99.90;;;;;;4454763;32;20073;-63
2024/03/10 05:36:26;;;;;;;0.98;0.98;;;4.50;99.90;;;;;;4453158;32;20081;-63
2024/03/10 05:38:52;;;;;;;1.52;1.42;;;4.50;99.90;;;;;;4456541;32;20093;-63
2024/03/10 05:41:17;;;;;;;2.35;1.52;;;4.50;99.90;;;;;;4455503;32;20076;-62
2024/03/10 05:43:43;;;;;;;3.05;2.05;;;4.50;99.90;;;;;;4455836;32;20547;-63
2024/03/10 05:46:09;;;;;;;2.65;2.35;;;4.50;99.90;;;;;;4457465;32;20081;-61
2024/03/10 05:48:34;;;;;;;2.80;1.45;;;4.50;99.90;;;;;;4456753;32;20081;-63
2024/03/10 05:51:00;;;;;;;2.30;1.83;;;4.50;99.90;;;;;;4455583;32;20088;-62
2024/03/10 05:53:25;;;;;;;1.65;1.00;;;4.50;99.90;;;;;;4454735;32;20084;-63
2024/03/10 05:55:52;;;;;;;2.55;1.48;;;4.50;99.90;;;;;;4454924;32;20065;-64
2024/03/10 05:58:18;;;;;;;1.67;1.17;;;4.50;99.90;;;;;;4456630;32;20100;-65
2024/03/10 06:00:45;;;;;;;1.17;1.17;;;4.50;99.90;;;;;;4455424;32;20072;-66
2024/03/10 06:03:10;;;;;;;2.35;1.15;;;4.50;99.90;;;;;;4456864;32;20539;-65
2024/03/10 06:05:36;;;;;;;1.30;1.20;;;4.50;99.90;;;;;;4455634;32;20081;-63
2024/03/10 06:08:01;;;;;;;3.50;2.30;;;4.60;99.90;;;;;;4456281;32;20132;-64
2024/03/10 06:10:27;;;;;;;8.75;2.53;;;4.60;99.90;;;;;;4456542;32;20057;-64
2024/03/10 06:12:53;;;;;;;1.42;1.35;;;4.60;99.90;;;;;;4454937;32;20084;-64
2024/03/10 06:15:19;;;;;;;1.33;1.23;;;4.70;99.90;;;;;;4455514;32;20061;-65
2024/03/10 06:25:25;;;;;;;1.20;1.10;;;4.70;99.90;;;;;;4448746;32;20094;-65
2024/03/10 06:26:03;;;;;;;1.35;1.25;;;4.70;99.90;;;;;;4449619;32;20537;-64
2024/03/10 06:28:29;;;;;;;2.53;2.03;;;4.70;99.90;;;;;;4453502;32;20087;-64
2024/03/10 06:30:58;;;;;;;1.95;1.50;;;4.80;99.90;;;;;;4456683;32;20065;-65
2024/03/10 06:33:24;;;;;;;2.20;1.62;;;4.90;99.90;;;;;;4453992;32;20077;-65
2024/03/10 06:35:49;;;;;;;7.70;2.12;;;4.90;99.90;;;;;;4454688;32;20064;-65
2024/03/10 06:38:17;;;;;;;1.60;1.42;;;5.00;99.90;;;;;;4454001;32;20085;-63
2024/03/10 06:40:44;;;;;;;1.70;1.60;;;5.00;99.90;;;;;;4454690;32;20451;-62
2024/03/10 06:43:09;;;;;;;2.05;1.65;;;5.00;99.90;;;;;;4452556;32;20061;-65
2024/03/10 06:45:35;;;;;;;0.75;0.75;;;5.10;99.90;;;;;;4454305;32;20080;-63
2024/03/10 06:48:00;;;;;;;4.82;1.62;;;5.10;99.90;;;;;;4454102;32;20080;-62
2024/03/10 06:50:28;;;;;;;3.62;1.58;;;5.10;99.90;;;;;;4453080;32;20072;-63
2024/03/10 06:52:53;;;;;;;1.75;1.62;;;5.20;99.90;;;;;;4454655;32;20544;-62
2024/03/10 06:55:19;;;;;;;2.15;1.10;;;5.30;99.90;;;;;;4453038;32;20118;-65
2024/03/10 06:57:45;;;;;;;2.42;2.10;;;5.30;99.90;;;;;;4455981;32;21142;-63
2024/03/10 07:00:12;;;;;;;7.10;2.70;;;5.40;99.90;;;;;;4454490;32;20119;-62
2024/03/10 07:02:40;;;;;;;4.00;2.33;;;5.50;99.90;;;;;;4455651;32;20083;-62
2024/03/10 07:05:06;;;;;;;3.92;2.80;;;5.60;99.90;;;;;;4453621;32;20064;-63
2024/03/10 07:07:32;;;;;;;18.37;3.17;;;5.60;99.90;;;;;;4455893;32;20064;-63
2024/03/10 07:09:57;;;;;;;2.95;2.00;;;5.70;99.90;;;;;;4454959;32;20088;-62
2024/03/10 07:12:23;;;;;;;9.20;2.35;;;5.80;99.90;;;;;;4455110;32;20076;-62
2024/03/10 07:14:49;;;;;;;0.93;0.93;;;5.80;99.90;;;;;;4455936;32;20477;-63
2024/03/10 07:17:15;;;;;;;4.22;2.10;;;5.90;99.90;;;;;;4454271;32;20089;-62
2024/03/10 07:19:41;;;;;;;1.90;1.30;;;6.00;99.90;;;;;;4453497;32;20072;-62
2024/03/10 07:22:10;;;;;;;4.20;1.95;;;6.10;99.90;;;;;;4453780;32;20069;-63
2024/03/10 07:24:37;;;;;;;1.48;1.37;;;6.20;99.90;;;;;;4455902;32;20089;-63
2024/03/10 07:27:04;;;;;;;6.03;1.20;;;6.20;99.90;;;;;;4454389;32;20075;-62
2024/03/10 07:29:30;;;;;;;2.15;1.08;;;6.30;99.90;;;;;;4453566;32;20076;-64
2024/03/10 07:31:56;;;;;;;1.60;1.50;;;6.40;99.90;;;;;;4454337;32;20068;-62
2024/03/10 07:34:21;;;;;;;1.60;1.50;;;6.50;99.90;;;;;;4455329;32;20126;-64
2024/03/10 07:36:48;;;;;;;0.82;0.82;;;6.60;99.90;;;;;;4454394;32;20076;-61
2024/03/10 07:39:14;;;;;;;4.03;1.55;;;6.70;99.90;;;;;;4456224;32;20061;-62
2024/03/10 07:41:41;;;;;;;0.50;0.50;;;6.80;99.90;;;;;;4453720;32;20480;-62
2024/03/10 07:44:07;;;;;;;2.37;1.37;;;6.90;99.90;;;;;;4454058;32;20147;-62
2024/03/10 07:46:32;;;;;;;0.70;0.70;;;7.00;99.90;;;;;;4455323;32;20064;-64
2024/03/10 07:49:02;;;;;;;2.60;1.05;;;7.10;99.90;;;;;;4456064;32;20534;-66
2024/03/10 07:51:30;;;;;;;1.80;1.35;;;7.20;99.90;;;;;;4454527;32;20080;-65
2024/03/10 07:53:57;;;;;;;2.58;1.70;;;7.30;99.90;;;;;;4454046;32;20085;-66
2024/03/10 07:56:22;;;;;;;3.08;1.08;;;7.40;99.90;;;;;;4452372;32;20077;-66
2024/03/10 07:58:48;;;;;;;3.05;1.60;;;7.50;99.90;;;;;;4454951;32;20137;-66
2024/03/10 08:01:14;;;;;;;2.75;1.50;;;7.70;99.90;;;;;;4453762;32;20076;-66
2024/03/10 08:03:39;;;;;;;2.60;1.27;;;7.80;99.90;;;;;;4455137;32;21319;-67
2024/03/10 08:06:07;;;;;;;2.50;1.80;;;7.90;99.90;;;;;;4456081;32;20135;-66
2024/03/10 08:08:33;;;;;;;1.02;1.00;;;7.90;99.90;;;;;;4455603;32;20072;-66
2024/03/10 08:10:58;;;;;;;1.20;1.10;;;8.00;99.90;;;;;;4454540;32;20093;-66
2024/03/10 08:13:24;;;;;;;2.58;1.67;;;8.10;99.90;;;;;;4453085;32;20089;-66
2024/03/10 08:15:50;;;;;;;1.17;1.17;;;8.30;99.90;;;;;;4454780;32;20068;-66
2024/03/10 08:18:15;;;;;;;1.50;1.33;;;8.40;99.90;;;;;;4453077;32;20076;-66
2024/03/10 08:20:41;;;;;;;2.42;1.15;;;8.40;99.90;;;;;;4454274;32;20072;-67
2024/03/10 08:23:06;;;;;;;1.20;1.10;;;8.60;99.90;;;;;;4454528;32;20073;-66
2024/03/10 08:25:34;;;;;;;2.92;1.48;;;8.60;99.90;;;;;;4455009;32;20097;-66
2024/03/10 08:27:59;;;;;;;1.40;1.30;;;8.80;99.90;;;;;;4453281;32;20418;-67
2024/03/10 08:30:25;;;;;;;1.45;1.33;;;8.80;99.90;;;;;;4454299;32;20103;-66
2024/03/10 08:32:51;;;;;;;1.20;1.10;;;8.90;99.90;;;;;;4454155;32;20541;-66
2024/03/10 08:35:20;;;;;;;3.22;1.55;;;9.00;99.90;;;;;;4455226;32;20080;-66
2024/03/10 08:37:46;;;;;;;2.42;1.33;;;9.10;99.90;;;;;;4452444;32;20077;-66
2024/03/10 08:40:11;;;;;;;1.37;1.25;;;9.20;99.90;;;;;;4447681;32;20073;-66
2024/03/10 08:42:38;;;;;;;2.53;1.40;;;9.40;99.90;;;;;;4450584;32;20506;-66
2024/03/10 08:45:05;;;;;;;7.40;1.40;;;9.50;99.90;;;;;;4453327;32;20072;-66
2024/03/10 08:47:31;;;;;;;1.60;1.12;;;9.70;99.90;;;;;;4446462;32;20534;-66
2024/03/10 08:49:58;;;;;;;4.57;1.10;;;9.80;99.90;;;;;;4454637;32;20418;-66
2024/03/10 08:52:23;;;;;;;1.23;1.12;;;9.90;99.90;;;;;;4444964;32;21277;-66
2024/03/10 08:54:50;;;;;;;0.98;0.98;;;10.00;99.90;;;;;;4451997;32;20409;-67
2024/03/10 08:57:16;;;;;;;2.03;1.40;;;10.10;99.90;;;;;;4452719;32;20528;-66
2024/03/10 08:59:42;;;;;;;0.98;0.95;;;10.20;99.90;;;;;;4453699;32;20094;-66
2024/03/10 09:02:07;;;;;;;3.33;0.98;;;10.30;99.90;;;;;;4453034;32;20084;-65
2024/03/10 09:04:33;;;;;;;1.02;0.90;;;10.50;99.90;;;;;;4448528;32;20652;-65
2024/03/10 09:06:58;;;;;;;4.65;1.62;;;10.60;99.90;;;;;;4445317;32;20092;-67
2024/03/10 09:09:24;;;;;;;2.47;1.83;;;10.70;99.90;;;;;;4454143;32;21170;-65
2024/03/10 09:11:51;;;;;;;6.62;2.60;;;10.70;99.90;;;;;;4454552;32;20076;-66
2024/03/10 09:14:18;;;;;;;3.28;1.92;;;10.80;99.90;;;;;;4456386;32;20188;-66
2024/03/10 09:16:44;;;;;;;9.75;1.83;;;11.00;99.90;;;;;;4448612;32;20073;-66
2024/03/10 09:19:10;;;;;;;2.70;1.62;;;11.00;99.90;;;;;;4457115;32;20065;-65
2024/03/10 09:21:37;;;;;;;7.95;1.73;;;11.00;99.90;;;;;;4455109;32;20209;-65
2024/03/10 09:24:03;;;;;;;3.85;2.10;;;11.00;99.90;;;;;;4448721;32;20536;-65
2024/03/10 09:26:30;;;;;;;2.10;1.12;;;11.20;99.90;;;;;;4445893;32;20132;-65
2024/03/10 09:28:55;;;;;;;0.88;0.88;;;11.50;99.90;;;;;;4455558;32;20123;-66
2024/03/10 09:31:23;;;;;;;2.03;1.42;;;11.60;99.90;;;;;;4454897;32;20056;-66
2024/03/10 09:33:49;;;;;;;3.60;1.10;;;11.50;99.90;;;;;;4457555;32;20547;-67
2024/03/10 09:36:16;;;;;;;4.30;1.35;;;11.60;99.90;;;;;;4456458;32;20122;-66
2024/03/10 09:38:44;;;;;;;1.77;1.20;;;11.80;99.90;;;;;;4455924;32;20230;-65
2024/03/10 09:41:11;;;;;;;0.80;0.80;;;12.00;99.90;;;;;;4445708;32;20084;-66
2024/03/10 09:43:38;;;;;;;0.93;0.90;;;12.10;99.90;;;;;;4455465;32;20141;-66
2024/03/10 09:46:05;;;;;;;1.05;0.90;;;12.10;99.90;;;;;;4448162;32;20481;-65
2024/03/10 09:48:32;;;;;;;1.73;1.12;;;11.90;99.90;;;;;;4455812;32;20065;-67
2024/03/10 09:50:57;;;;;;;3.20;2.15;;;12.10;99.90;;;;;;4456179;32;20493;-66
2024/03/10 09:53:25;;;;;;;2.08;1.02;;;12.10;99.90;;;;;;4445903;32;20084;-66
2024/03/10 09:55:52;;;;;;;1.08;1.08;;;12.30;99.90;;;;;;4456655;32;20065;-66
2024/03/10 09:58:25;;;;;;;2.95;1.62;;;12.50;99.90;;;;;;4446413;32;20087;-64
2024/03/10 10:00:52;;;;;;;0.73;0.73;;;12.60;99.90;;;;;;4456123;32;21231;-65
2024/03/10 10:03:19;;;;;;;1.65;1.27;;;12.40;99.90;;;;;;4456833;32;20527;-65
2024/03/10 10:05:52;;;;;;;0.85;0.85;;;12.40;99.90;;;;;;4451633;32;20512;-66
2024/03/10 10:08:18;;;;;;;1.52;1.20;;;12.60;99.90;;;;;;4441584;32;20156;-65
2024/03/10 10:10:49;;;;;;;3.90;1.67;;;12.70;99.90;;;;;;4456078;32;20680;-65
2024/03/10 10:13:23;;;;;;;1.67;1.12;;;12.80;99.90;;;;;;4450150;32;20520;-65
2024/03/10 10:15:49;;;;;;;1.08;1.00;;;12.60;99.90;;;;;;4445997;32;20067;-66
2024/03/10 10:18:15;;;;;;;3.53;1.42;;;12.60;99.90;;;;;;4454608;32;20524;-66
2024/03/10 10:20:42;;;;;;;1.52;1.05;;;12.70;99.90;;;;;;4448011;32;20536;-66
2024/03/10 10:23:07;;;;;;;0.82;0.82;;;12.80;99.90;;;;;;4455291;32;20084;-66
2024/03/10 10:25:36;;;;;;;4.65;1.65;;;12.80;99.90;;;;;;4454357;32;20061;-66
2024/03/10 10:28:03;;;;;;;4.65;1.80;;;12.80;99.90;;;;;;4453098;32;20222;-66
2024/03/10 10:30:29;;;;;;;2.50;1.58;;;12.90;99.90;;;;;;4452473;32;20124;-65
2024/03/10 10:33:05;;;;;;;1.95;1.33;;;12.80;99.90;;;;;;4440264;32;20491;-66
2024/03/10 10:35:33;;;;;;;4.82;1.85;;;13.00;99.90;;;;;;4452766;32;20551;-66
2024/03/10 10:38:03;;;;;;;0.93;0.85;;;13.20;99.90;;;;;;4440151;32;20089;-66
2024/03/10 10:40:29;;;;;;;1.40;1.30;;;13.50;99.90;;;;;;4452780;32;20115;-66
2024/03/10 10:42:55;;;;;;;1.20;1.00;;;13.70;99.90;;;;;;4445066;32;20094;-67
2024/03/10 10:45:22;;;;;;;2.28;0.95;;;14.00;99.90;;;;;;4454045;32;20504;-67
2024/03/10 10:47:50;;;;;;;4.30;1.55;;;14.00;99.90;;;;;;4445193;32;20069;-66
2024/03/10 10:50:20;;;;;;;5.97;2.45;;;14.00;99.90;;;;;;4454718;32;20544;-64
2024/03/10 10:52:46;;;;;;;;;;;13.80;99.90;;;;;;4456678;32;20068;-65
2024/03/10 10:55:13;;;;;;;1.55;1.27;;;13.70;99.90;;;;;;4457296;32;19959;-64
2024/03/10 10:57:44;;;;;;;1.27;1.00;;;13.60;99.90;;;;;;4456777;32;20123;-64
2024/03/10 11:02:41;;;;;;;2.12;1.77;;;13.50;99.90;;;;;;4456668;32;20133;-66
2024/03/10 11:05:07;;;;;;;2.47;1.62;;;13.20;99.90;;;;;;4448518;32;20064;-65
2024/03/10 11:07:33;;;;;;;1.50;1.02;;;13.30;99.90;;;;;;4455869;32;20072;-66
2024/03/10 11:09:58;;;;;;;1.80;1.65;;;13.30;99.90;;;;;;4456323;32;20582;-66
2024/03/10 11:12:25;;;;;;;2.85;1.35;;;13.30;99.90;;;;;;4446677;32;20148;-65
2024/03/10 11:14:52;;;;;;;1.87;1.17;;;13.50;99.90;;;;;;4454665;32;20089;-64
2024/03/10 11:17:20;;;;;;;3.55;1.77;;;13.60;99.90;;;;;;4455728;32;20131;-65
2024/03/10 11:19:47;;;;;;;6.05;1.50;;;13.60;99.90;;;;;;4457597;32;20053;-64
2024/03/10 11:22:17;;;;;;;1.87;0.98;;;13.40;99.90;;;;;;4453252;32;20474;-66
2024/03/10 11:25:03;;;;;;;4.62;1.55;;;13.40;99.90;;;;;;4455039;32;20057;-66
2024/03/10 11:27:31;;;;;;;1.80;1.20;;;13.50;99.90;;;;;;4453979;32;20162;-66
2024/03/10 11:29:57;;;;;;;1.05;1.00;;;13.60;99.90;;;;;;4455262;32;20520;-64
2024/03/10 11:32:38;;;;;;;2.20;1.45;;;13.60;99.90;;;;;;4454146;32;20134;-64
2024/03/10 11:35:08;;;;;;;1.70;1.58;;;13.50;99.90;;;;;;4454719;32;20523;-64
2024/03/10 11:37:35;;;;;;;4.30;1.50;;;13.50;99.90;;;;;;4455826;32;20061;-65
2024/03/10 11:40:04;;;;;;;3.20;1.20;;;13.20;99.90;;;;;;4448057;32;20089;-65
2024/03/10 11:42:31;;;;;;;2.95;1.30;;;13.30;99.90;;;;;;4454377;32;20076;-65
2024/03/10 11:44:57;;;;;;;1.52;1.05;;;13.40;99.90;;;;;;4455708;32;20163;-65
2024/03/10 11:47:23;;;;;;;2.30;1.20;;;13.60;99.90;;;;;;4454197;32;20084;-65
2024/03/10 11:49:51;;;;;;;6.18;1.58;;;13.80;99.90;;;;;;4455183;32;20077;-65
2024/03/10 11:52:20;;;;;;;1.90;1.27;;;13.90;99.90;;;;;;4418606;32;1118847;-65
2024/03/10 11:54:55;;;;;;;7.07;1.90;;;13.90;99.90;;;;;;4455314;32;20069;-65
2024/03/10 11:57:21;;;;;;;1.35;1.15;;;13.60;99.90;;;;;;4456323;32;20057;-65
2024/03/10 11:59:49;;;;;;;9.23;3.50;;;13.40;99.90;;;;;;4455742;32;20546;-64
2024/03/10 12:02:15;;;;;;;6.65;1.87;;;13.40;99.90;;;;;;4454436;32;20426;-64
2024/03/10 12:04:41;;;;;;;1.90;1.23;;;13.50;99.90;;;;;;4453829;32;20070;-63
2024/03/10 12:07:08;;;;;;;4.57;1.50;;;13.60;99.90;;;;;;4448471;32;20593;-64
2024/03/10 12:09:34;;;;;;;9.48;1.50;;;13.50;99.90;;;;;;4455462;32;20072;-64
2024/03/10 12:12:15;;;;;;;2.67;1.77;;;13.40;99.90;;;;;;4453273;32;20100;-65
2024/03/10 12:14:42;;;;;;;1.55;1.12;;;13.40;99.90;;;;;;4453910;32;20152;-63
2024/03/10 12:17:13;;;;;;;2.95;1.08;;;13.30;99.90;;;;;;4454644;32;20179;-63
2024/03/10 12:19:42;;;;;;;3.42;1.67;;;13.40;99.90;;;;;;4454489;32;20451;-64
2024/03/10 12:22:10;;;;;;;7.22;1.02;;;13.60;99.90;;;;;;4453866;32;20072;-63
2024/03/10 12:24:39;;;;;;;3.53;1.33;;;13.80;99.90;;;;;;4446277;32;20084;-63
2024/03/10 12:27:06;;;;;;;1.98;1.20;;;14.20;99.90;;;;;;4452579;32;20080;-62
2024/03/10 12:29:31;;;;;;;7.10;1.83;;;14.30;99.90;;;;;;4451653;32;20216;-65
2024/03/10 12:32:05;;;;;;;0.82;0.82;;;14.20;99.90;;;;;;4453391;32;20600;-64
2024/03/10 12:34:31;;;;;;;1.58;0.98;;;14.30;99.90;;;;;;4451825;32;20064;-65
2024/03/10 12:36:57;;;;;;;1.50;1.00;;;14.40;99.90;;;;;;4454145;32;20600;-64
2024/03/10 12:39:23;;;;;;;0.80;0.70;;;14.60;99.90;;;;;;4454079;32;20065;-64
2024/03/10 12:41:48;;;;;;;1.40;1.00;;;14.50;99.90;;;;;;4445415;32;20088;-64
2024/03/10 12:44:14;;;;;;;0.90;0.90;;;14.20;99.90;;;;;;4451980;32;20057;-63
2024/03/10 12:46:40;;;;;;;1.25;0.98;;;13.90;99.90;;;;;;4454759;32;20076;-63
2024/03/10 12:49:07;;;;;;;0.75;0.70;;;13.60;99.90;;;;;;4455532;32;20065;-63
2024/03/10 12:51:33;;;;;;;3.55;1.20;;;13.40;99.90;;;;;;4456148;32;20080;-67
2024/03/10 12:53:58;;;;;;;1.98;1.25;;;13.40;99.90;;;;;;4455597;32;20555;-61
2024/03/10 12:56:24;;;;;;;2.70;1.35;;;13.40;99.90;;;;;;4458713;32;20085;-63
2024/03/10 12:58:51;;;;;;;3.08;2.12;;;13.30;99.90;;;;;;4456349;32;20073;-62
2024/03/10 13:01:17;;;;;;;7.18;1.42;;;13.30;99.90;;;;;;4456942;32;20077;-63
2024/03/10 13:03:42;;;;;;;1.23;1.00;;;13.20;99.90;;;;;;4454796;32;20068;-65
2024/03/10 13:06:08;;;;;;;1.35;1.15;;;13.10;99.90;;;;;;4456294;32;20077;-63
2024/03/10 13:08:33;;;;;;;0.98;0.90;;;13.20;99.90;;;;;;4458096;32;20512;-63
2024/03/10 13:10:59;;;;;;;3.92;1.85;;;13.10;99.90;;;;;;4457275;32;20056;-65
2024/03/10 13:13:24;;;;;;;1.05;0.82;;;13.10;99.90;;;;;;4458883;32;20113;-66